Time;durP1;ratioP1;P1;durP2;ratioP2;P2;SDS_P1;SDS_P2;PMS_P1;PMS_P2;Temp;Humidity;BMP_temperature;BMP_pressure;BME280_temperature;BME280_humidity;BME280_pressure;Samples;Min_cycle;Max_cycle;Signal;HPM_P1;HPM_P2
2022/03/18 00:01:23;;;;;;;;;;;;;;;24.66;38.81;95378.03;4984918;28;9355;-62
2022/03/18 00:03:49;;;;;;;;;;;;;;;24.67;38.61;95385.06;4970348;28;9500;-62
2022/03/18 00:06:18;;;;;;;;;;;;;;;24.63;38.49;95387.28;4986052;28;9450;-62
2022/03/18 00:08:46;;;;;;;;;;;;;;;24.65;38.61;95382.06;4968641;28;7058;-62
2022/03/18 00:11:15;;;;;;;;;;;;;;;24.64;39.07;95383.28;4968596;28;7478;-62
2022/03/18 00:13:41;;;;;;;;;;;;;;;24.61;38.66;95384.25;4987877;28;9401;-62
2022/03/18 00:16:09;;;;;;;;;;;;;;;24.63;38.67;95381.78;4969337;28;9390;-62
2022/03/18 00:18:35;;;;;;;;;;;;;;;24.63;39.31;95390.03;4969254;28;7309;-62
2022/03/18 00:21:01;;;;;;;;;;;;;;;24.61;38.76;95378.75;4969232;28;7867;-62
2022/03/18 00:23:27;;;;;;;;;;;;;;;24.63;38.56;95392.00;4967352;28;7728;-62
2022/03/18 00:25:53;;;;;;;;;;;;;;;24.62;38.50;95387.78;4969289;28;8762;-62
2022/03/18 00:28:19;;;;;;;;;;;;;;;24.62;38.79;95391.25;4968989;28;9101;-62
2022/03/18 00:30:45;;;;;;;;;;;;;;;24.63;38.72;95389.25;4968850;28;9192;-62
2022/03/18 00:33:11;;;;;;;;;;;;;;;24.62;38.58;95391.25;4968065;28;9120;-62
2022/03/18 00:35:40;;;;;;;;;;;;;;;24.61;38.74;95389.75;4983851;28;9049;-62
2022/03/18 00:38:06;;;;;;;;;;;;;;;24.59;38.71;95394.22;4980196;28;8612;-62
2022/03/18 00:40:32;;;;;;;;;;;;;;;24.60;38.47;95388.22;4982355;28;7920;-62
2022/03/18 00:43:00;;;;;;;;;;;;;;;24.62;38.64;95398.78;4985203;28;7057;-62
2022/03/18 00:45:29;;;;;;;;;;;;;;;24.62;38.90;95391.25;4969312;28;8776;-62
2022/03/18 00:53:27;;;;;;;;;;;;;;;24.59;38.78;95388.72;4969290;28;7325;-62
2022/03/18 00:55:53;;;;;;;;;;;;;;;24.57;38.83;95396.69;4984155;28;9057;-62
2022/03/18 00:58:19;;;;;;;;;;;;;;;24.57;38.60;95386.47;4969499;28;9773;-62
2022/03/18 01:00:49;;;;;;;;;;;;;;;24.58;38.57;95398.94;4982884;28;9033;-62
2022/03/18 01:03:15;;;;;;;;;;;;;;;24.57;38.26;95400.22;4968545;28;9046;-62
2022/03/18 01:05:42;;;;;;;;;;;;;;;24.58;38.35;95398.94;4983106;28;9192;-62
2022/03/18 01:08:11;;;;;;;;;;;;;;;24.56;38.41;95384.16;4983145;28;6999;-62
2022/03/18 01:10:37;;;;;;;;;;;;;;;24.57;38.49;95396.69;4982893;28;7058;-62
2022/03/18 01:13:03;;;;;;;;;;;;;;;24.59;38.52;95388.72;4984043;28;7229;-62
2022/03/18 01:15:29;;;;;;;;;;;;;;;24.59;38.42;95385.97;4967670;28;6980;-62
2022/03/18 01:17:56;;;;;;;;;;;;;;;24.58;38.73;95395.44;4969149;28;7046;-62
2022/03/18 01:20:21;;;;;;;;;;;;;;;24.57;38.41;95391.97;4981483;28;9106;-62
2022/03/18 01:22:47;;;;;;;;;;;;;;;24.56;38.12;95395.94;4969557;28;7212;-62
2022/03/18 01:25:13;;;;;;;;;;;;;;;24.58;38.44;95390.72;4969309;28;9408;-62
2022/03/18 01:27:40;;;;;;;;;;;;;;;24.59;38.04;95388.72;4968030;28;8126;-62
2022/03/18 01:30:06;;;;;;;;;;;;;;;24.56;37.97;95390.44;4982970;28;6991;-62
2022/03/18 01:32:33;;;;;;;;;;;;;;;24.56;38.33;95393.19;4983954;28;8979;-62
2022/03/18 01:35:00;;;;;;;;;;;;;;;24.57;38.45;95394.72;4985433;28;9615;-62
2022/03/18 01:37:26;;;;;;;;;;;;;;;24.60;38.66;95390.22;4967756;28;7376;-62
2022/03/18 01:39:52;;;;;;;;;;;;;;;24.60;38.26;95390.22;4967798;28;8025;-62
2022/03/18 01:42:18;;;;;;;;;;;;;;;24.63;38.02;95395.53;4983321;28;8923;-62
2022/03/18 01:44:47;;;;;;;;;;;;;;;24.61;38.33;95392.50;4967454;28;9098;-62
2022/03/18 01:47:16;;;;;;;;;;;;;;;24.62;37.91;95387.78;4983485;28;8188;-62
2022/03/18 01:49:42;;;;;;;;;;;;;;;24.64;37.96;95391.53;4968038;28;9133;-61
2022/03/18 01:52:11;;;;;;;;;;;;;;;24.65;38.17;95392.28;4966658;28;7443;-62
2022/03/18 01:54:49;;;;;;;;;;;;;;;24.64;38.08;95390.78;4967521;28;7083;-62
2022/03/18 01:57:22;;;;;;;;;;;;;;;24.63;38.34;95392.00;4969061;28;8945;-62
2022/03/18 01:59:54;;;;;;;;;;;;;;;24.63;38.29;95389.25;4966692;28;7279;-62
2022/03/18 02:02:21;;;;;;;;;;;;;;;24.60;38.09;95390.22;4968288;28;8825;-62
2022/03/18 02:04:51;;;;;;;;;;;;;;;24.62;37.82;95390.53;4984159;28;7522;-62
2022/03/18 02:07:20;;;;;;;;;;;;;;;24.62;38.04;95379.50;4966764;28;8759;-62
2022/03/18 02:09:46;;;;;;;;;;;;;;;24.63;38.04;95390.03;4967162;28;7058;-62
2022/03/18 02:12:12;;;;;;;;;;;;;;;24.61;37.85;95387.00;4969565;28;8822;-62
2022/03/18 02:14:45;;;;;;;;;;;;;;;24.60;37.77;95385.47;4967888;28;9222;-62
2022/03/18 02:17:13;;;;;;;;;;;;;;;24.60;38.06;95393.72;4968131;28;7018;-62
2022/03/18 02:19:41;;;;;;;;;;;;;;;24.61;37.59;95392.50;4968874;28;9413;-62
2022/03/18 02:22:11;;;;;;;;;;;;;;;24.60;38.09;95392.97;4986093;28;9564;-62
2022/03/18 02:24:41;;;;;;;;;;;;;;;24.59;38.29;95392.22;4983568;28;7500;-62
2022/03/18 02:27:08;;;;;;;;;;;;;;;24.54;38.12;95392.91;4968922;28;9298;-62
2022/03/18 02:29:35;;;;;;;;;;;;;;;24.59;38.13;95396.97;4973977;28;9312;-62
2022/03/18 02:32:05;;;;;;;;;;;;;;;24.58;38.22;95398.19;4987282;28;9328;-62
2022/03/18 02:34:32;;;;;;;;;;;;;;;24.57;37.93;95405.72;4974678;28;7274;-62
2022/03/18 02:37:01;;;;;;;;;;;;;;;24.58;37.97;95404.47;4972866;28;9558;-62
2022/03/18 02:39:27;;;;;;;;;;;;;;;24.56;37.48;95403.41;4972855;28;7073;-62
2022/03/18 02:41:56;;;;;;;;;;;;;;;24.57;37.89;95405.72;4972008;28;9777;-62
2022/03/18 02:44:23;;;;;;;;;;;;;;;24.56;37.88;95404.19;4972368;28;8771;-62
2022/03/18 02:46:51;;;;;;;;;;;;;;;24.54;37.51;95408.63;4976915;28;9335;-62
2022/03/18 02:49:24;;;;;;;;;;;;;;;24.57;38.01;95407.69;4971200;28;9025;-62
2022/03/18 02:51:56;;;;;;;;;;;;;;;24.54;37.91;95403.91;4995947;28;7313;-62
2022/03/18 02:54:22;;;;;;;;;;;;;;;24.54;37.75;95409.41;4955893;28;8864;-62
2022/03/18 02:56:49;;;;;;;;;;;;;;;24.56;37.69;95406.94;4974688;28;8459;-62
2022/03/18 02:59:15;;;;;;;;;;;;;;;24.52;37.85;95403.63;4972049;28;7399;-62
2022/03/18 03:01:41;;;;;;;;;;;;;;;24.51;38.30;95404.84;4970451;28;7333;-62
2022/03/18 03:04:07;;;;;;;;;;;;;;;24.52;37.79;95400.13;4970838;28;8777;-62
2022/03/18 03:09:17;;;;;;;;;;;;;;;24.52;38.10;95411.13;4971179;28;9157;-62
2022/03/18 03:11:44;;;;;;;;;;;;;;;24.48;37.85;95411.31;4971204;28;9116;-62
2022/03/18 03:14:19;;;;;;;;;;;;;;;24.46;38.54;95413.81;4970889;28;9471;-62
2022/03/18 03:16:48;;;;;;;;;;;;;;;24.44;37.92;95421.78;4970622;28;6994;-62
2022/03/18 03:19:15;;;;;;;;;;;;;;;24.45;37.69;95417.00;4970613;28;7255;-61
2022/03/18 03:21:41;;;;;;;;;;;;;;;24.39;37.95;95413.44;4969292;28;8212;-62
2022/03/18 03:24:12;;;;;;;;;;;;;;;24.42;38.21;95417.97;4965652;28;8868;-62
2022/03/18 03:26:38;;;;;;;;;;;;;;;24.40;38.55;95425.97;4984400;28;7029;-62
2022/03/18 03:29:04;;;;;;;;;;;;;;;24.42;37.97;95424.25;4969949;28;7052;-62
2022/03/18 03:31:33;;;;;;;;;;;;;;;24.41;37.95;95428.22;4969996;28;9216;-62
2022/03/18 03:33:59;;;;;;;;;;;;;;;24.42;38.36;95434.47;4969934;28;9100;-62
2022/03/18 03:36:26;;;;;;;;;;;;;;;24.42;38.25;95424.25;4986720;28;9100;-62
2022/03/18 03:38:54;;;;;;;;;;;;;;;24.45;38.45;95434.28;4977387;28;8818;-62
2022/03/18 03:41:29;;;;;;;;;;;;;;;24.42;38.09;95429.75;4987066;28;7009;-62
2022/03/18 03:43:55;;;;;;;;;;;;;;;24.44;38.05;95438.28;4995669;28;7289;-62
2022/03/18 03:46:21;;;;;;;;;;;;;;;24.45;38.18;95434.28;4986847;28;8755;-62
2022/03/18 03:48:48;;;;;;;;;;;;;;;24.48;38.09;95449.06;4980315;28;7054;-62
2022/03/18 03:51:14;;;;;;;;;;;;;;;24.47;37.63;95442.03;4988473;28;7333;-62
2022/03/18 03:53:40;;;;;;;;;;;;;;;24.45;37.65;95442.53;4997736;28;7737;-62
2022/03/18 03:56:06;;;;;;;;;;;;;;;24.46;38.15;95441.31;4973515;28;7111;-62
2022/03/18 03:58:34;;;;;;;;;;;;;;;24.47;37.53;95445.56;4972371;28;8977;-62
2022/03/18 04:01:05;;;;;;;;;;;;;;;24.48;37.51;95449.06;4972182;28;8640;-61
2022/03/18 04:03:32;;;;;;;;;;;;;;;24.47;38.02;95453.81;4973093;28;9176;-62
2022/03/18 04:06:01;;;;;;;;;;;;;;;24.45;37.99;95453.53;4988305;28;9413;-62
2022/03/18 04:08:30;;;;;;;;;;;;;;;24.46;37.75;95454.28;4983852;28;8756;-62
2022/03/18 04:11:00;;;;;;;;;;;;;;;24.44;37.51;95457.53;4969971;28;9024;-62
2022/03/18 04:13:28;;;;;;;;;;;;;;;24.44;37.84;95446.53;4970149;28;8843;-62
2022/03/18 04:15:55;;;;;;;;;;;;;;;24.45;38.03;95455.50;4985753;28;9004;-62
2022/03/18 04:18:21;;;;;;;;;;;;;;;24.47;37.99;95453.03;4985634;28;9077;-62
2022/03/18 04:20:47;;;;;;;;;;;;;;;24.47;37.69;95453.81;4971884;28;9110;-62
2022/03/18 04:23:13;;;;;;;;;;;;;;;24.45;37.75;95456.28;4971155;28;9122;-62
2022/03/18 04:25:41;;;;;;;;;;;;;;;24.46;37.95;95459.78;4972726;28;7204;-61
2022/03/18 04:28:08;;;;;;;;;;;;;;;24.44;37.63;95449.28;4973220;28;8733;-62
2022/03/18 04:30:34;;;;;;;;;;;;;;;24.46;37.83;95455.06;4988161;28;9126;-62
2022/03/18 04:33:01;;;;;;;;;;;;;;;24.44;37.94;95452.03;4972458;28;9117;-62
2022/03/18 04:35:32;;;;;;;;;;;;;;;24.46;37.95;95457.81;4988878;28;7059;-62
2022/03/18 04:38:00;;;;;;;;;;;;;;;24.44;37.56;95460.28;4978738;28;9270;-62
2022/03/18 04:40:27;;;;;;;;;;;;;;;24.45;37.46;95456.28;4973076;28;9793;-62
2022/03/18 04:42:55;;;;;;;;;;;;;;;24.45;37.93;95456.28;4987803;28;7419;-62
2022/03/18 04:45:21;;;;;;;;;;;;;;;24.46;37.72;95460.56;4955826;28;7749;-62
2022/03/18 04:47:49;;;;;;;;;;;;;;;24.45;37.70;95464.53;4973283;28;9542;-62
2022/03/18 04:50:17;;;;;;;;;;;;;;;24.44;37.62;95463.03;4980631;28;9103;-62
2022/03/18 04:52:46;;;;;;;;;;;;;;;24.43;37.94;95458.75;4972817;28;8789;-62
2022/03/18 04:55:14;;;;;;;;;;;;;;;24.42;38.14;95464.72;4973984;28;7086;-62
2022/03/18 04:57:47;;;;;;;;;;;;;;;24.44;38.06;95467.75;4971628;28;7220;-62
2022/03/18 05:00:24;;;;;;;;;;;;;;;24.45;37.51;95467.28;4977393;28;9688;-61
2022/03/18 05:03:10;;;;;;;;;;;;;;;24.45;37.81;95467.28;4966598;28;8458;-62
2022/03/18 05:05:41;;;;;;;;;;;;;;;24.43;37.73;95469.75;4990698;28;7322;-62
2022/03/18 05:08:09;;;;;;;;;;;;;;;24.42;38.07;95468.25;4967715;28;8859;-62
2022/03/18 05:10:41;;;;;;;;;;;;;;;24.44;37.86;95476.78;4972510;28;8989;-62
2022/03/18 05:13:13;;;;;;;;;;;;;;;24.43;37.63;95468.97;4972116;28;7501;-62
2022/03/18 05:15:47;;;;;;;;;;;;;;;24.39;38.06;95469.19;4972465;28;7326;-62
2022/03/18 05:18:19;;;;;;;;;;;;;;;24.38;37.56;95466.94;4971810;28;7071;-62
2022/03/18 05:21:10;;;;;;;;;;;;;;;24.38;37.72;95483.41;4989016;28;7479;-62
2022/03/18 05:23:44;;;;;;;;;;;;;;;24.37;37.53;95477.16;4985745;28;9499;-62
2022/03/18 05:26:11;;;;;;;;;;;;;;;24.33;37.98;95475.84;4984053;28;7301;-62
2022/03/18 05:28:39;;;;;;;;;;;;;;;24.35;37.94;95479.63;4971963;28;7275;-61
2022/03/18 05:31:08;;;;;;;;;;;;;;;24.34;37.86;95483.59;4971368;28;9376;-62
2022/03/18 05:33:46;;;;;;;;;;;;;;;24.34;38.09;95485.59;4972470;28;7440;-62
2022/03/18 05:36:14;;;;;;;;;;;;;;;24.33;37.53;95487.59;4988987;28;7553;-62
2022/03/18 05:38:40;;;;;;;;;;;;;;;24.33;37.74;95490.34;4971235;28;7244;-62
2022/03/18 05:41:07;;;;;;;;;;;;;;;24.30;37.72;95483.03;4978927;28;7061;-61
2022/03/18 05:43:36;;;;;;;;;;;;;;;24.34;38.29;95493.84;4968031;28;10414;-62
2022/03/18 05:46:05;;;;;;;;;;;;;;;24.35;38.23;95493.38;4967456;28;7347;-61
2022/03/18 05:48:32;;;;;;;;;;;;;;;24.33;37.93;95489.59;4963635;28;9682;-62
2022/03/18 05:50:57;;;;;;;;;;;;;;;24.32;38.03;95485.31;4963624;28;9136;-62
2022/03/18 05:53:23;;;;;;;;;;;;;;;24.33;37.79;95489.59;4965461;28;7248;-62
2022/03/18 05:58:35;;;;;;;;;;;;;;;24.35;37.79;95501.63;4970335;28;9366;-62
2022/03/18 06:01:01;;;;;;;;;;;;;;;24.33;37.71;95492.34;4976381;28;9090;-62
2022/03/18 06:03:39;;;;;;;;;;;;;;;24.33;38.11;95504.09;4976491;28;9426;-62
2022/03/18 06:06:12;;;;;;;;;;;;;;;24.34;37.52;95502.84;4971732;28;9381;-62
2022/03/18 06:11:48;;;;;;;;;;;;;;;24.34;37.27;95500.09;4969252;28;7239;-62
2022/03/18 06:14:25;;;;;;;;;;;;;;;24.32;37.02;95501.81;4981259;28;9053;-61
2022/03/18 06:17:00;;;;;;;;;;;;;;;24.33;37.22;95495.84;4975225;28;9373;-62
2022/03/18 06:19:28;;;;;;;;;;;;;;;24.33;37.52;95501.34;4986718;28;8802;-61
2022/03/18 06:21:58;;;;;;;;;;;;;;;24.36;36.88;95497.63;4985609;28;9134;-62
2022/03/18 06:24:24;;;;;;;;;;;;;;;24.35;37.11;95503.63;4968763;28;9039;-62
2022/03/18 06:26:52;;;;;;;;;;;;;;;24.35;37.26;95503.63;4970243;28;7452;-61
2022/03/18 06:29:19;;;;;;;;;;;;;;;24.33;36.71;95504.09;4976976;28;9413;-62
2022/03/18 06:31:46;;;;;;;;;;;;;;;24.32;36.87;95513.56;4984436;28;7236;-63
2022/03/18 06:34:14;;;;;;;;;;;;;;;24.31;37.61;95509.31;4988335;28;9039;-62
2022/03/18 06:36:40;;;;;;;;;;;;;;;24.34;38.24;95510.31;4973185;28;7045;-62
2022/03/18 06:39:10;;;;;;;;;;;;;;;24.36;37.27;95514.13;4982155;28;8905;-62
2022/03/18 06:41:38;;;;;;;;;;;;;;;24.33;37.50;95511.56;4970392;28;7200;-63
2022/03/18 06:44:09;;;;;;;;;;;;;;;24.37;37.41;95520.38;4971097;28;6997;-63
2022/03/18 06:46:49;;;;;;;;;;;;;;;24.38;37.39;95511.66;4980361;28;9079;-63
2022/03/18 06:49:15;;;;;;;;;;;;;;;24.35;37.24;95520.09;4988851;28;7138;-63
2022/03/18 06:51:41;;;;;;;;;;;;;;;24.32;37.35;95518.31;4969801;28;9845;-63
2022/03/18 06:54:08;;;;;;;;;;;;;;;24.28;37.41;95517.72;4971610;28;9391;-62
2022/03/18 06:56:34;;;;;;;;;;;;;;;24.30;37.14;95520.78;4969718;28;7266;-62
2022/03/18 06:59:00;;;;;;;;;;;;;;;24.29;37.63;95525.53;4972751;28;9616;-61
2022/03/18 07:01:29;;;;;;;;;;;;;;;24.29;37.47;95525.53;4970372;28;7401;-62
2022/03/18 07:03:56;;;;;;;;;;;;;;;24.30;37.17;95535.28;4985894;28;9108;-62
2022/03/18 07:06:24;;;;;;;;;;;;;;;24.31;37.06;95530.53;4970560;28;9035;-63
2022/03/18 07:08:51;;;;;;;;;;;;;;;24.29;36.95;95525.53;4961802;28;7370;-62
2022/03/18 07:11:19;;;;;;;;;;;;;;;24.31;36.45;95522.28;4979786;28;9225;-62
2022/03/18 07:13:46;;;;;;;;;;;;;;;24.29;37.30;95531.03;4980234;28;9126;-62
2022/03/18 07:18:57;;;;;;;;;;;;;;;24.25;36.95;95541.44;4971973;28;8432;-62
2022/03/18 07:21:23;;;;;;;;;;;;;;;24.26;36.59;95531.19;4967339;28;9104;-62
2022/03/18 07:23:52;;;;;;;;;;;;;;;24.25;37.34;95535.94;4971837;28;7445;-62
2022/03/18 07:26:21;;;;;;;;;;;;;;;24.25;37.23;95532.44;4990857;28;7629;-62
2022/03/18 07:29:04;;;;;;;;;;;;;;;24.22;37.28;95536.13;4973794;28;7079;-62
2022/03/18 07:31:39;;;;;;;;;;;;;;;24.22;37.08;95531.41;4962260;28;7272;-62
2022/03/18 07:34:13;;;;;;;;;;;;;;;24.22;37.66;95538.88;4988324;28;8227;-62
2022/03/18 07:36:53;;;;;;;;;;;;;;;24.21;37.74;95534.59;4982023;28;7209;-62
2022/03/18 07:39:21;;;;;;;;;;;;;;;24.21;37.77;95545.59;4978178;28;7237;-62
2022/03/18 07:42:01;;;;;;;;;;;;;;;24.22;37.61;95542.41;4983783;28;7361;-62
2022/03/18 07:44:31;;;;;;;;;;;;;;;24.22;37.62;95536.13;4989134;28;7879;-62
2022/03/18 07:46:59;;;;;;;;;;;;;;;24.26;37.97;95542.19;4973389;28;8743;-62
2022/03/18 07:49:26;;;;;;;;;;;;;;;24.25;37.63;95546.19;4987980;28;7012;-62
2022/03/18 07:51:52;;;;;;;;;;;;;;;24.24;37.33;95545.44;4969527;28;8910;-62
2022/03/18 07:54:20;;;;;;;;;;;;;;;24.25;37.47;95549.69;4968304;28;9286;-62
2022/03/18 07:56:46;;;;;;;;;;;;;;;24.26;37.89;95542.19;4971748;28;9217;-62
2022/03/18 07:59:22;;;;;;;;;;;;;;;24.26;38.12;95545.72;4988148;28;7654;-62
2022/03/18 08:01:48;;;;;;;;;;;;;;;24.25;37.64;95551.69;4970649;28;7659;-62
2022/03/18 08:04:14;;;;;;;;;;;;;;;24.25;37.91;95549.69;4990522;28;8706;-62
2022/03/18 08:06:40;;;;;;;;;;;;;;;24.26;38.04;95553.97;4969983;28;9094;-62
2022/03/18 08:09:08;;;;;;;;;;;;;;;24.23;37.93;95548.66;4963818;28;9688;-63
2022/03/18 08:11:40;;;;;;;;;;;;;;;24.23;38.29;95556.91;4980943;28;7256;-63
2022/03/18 08:14:06;;;;;;;;;;;;;;;24.25;38.03;95560.69;4964562;28;7272;-63
2022/03/18 08:16:38;;;;;;;;;;;;;;;24.26;38.11;95553.97;4988974;28;9486;-63
2022/03/18 08:19:13;;;;;;;;;;;;;;;24.26;38.20;95564.97;4987153;28;7213;-64
2022/03/18 08:21:41;;;;;;;;;;;;;;;24.25;37.98;95563.44;4976230;28;8183;-63
2022/03/18 08:24:16;;;;;;;;;;;;;;;24.25;37.64;95560.69;4976054;28;9108;-64
2022/03/18 08:26:47;;;;;;;;;;;;;;;24.25;37.43;95557.94;4988328;28;9631;-63
2022/03/18 08:29:49;;;;;;;;;;;;;;;24.25;38.09;95557.94;4988779;28;7334;-63
2022/03/18 08:32:28;;;;;;;;;;;;;;;24.26;37.90;95564.97;4923421;29;7304;-63
2022/03/18 08:34:58;;;;;;;;;;;;;;;24.28;37.97;95565.25;4928813;28;7373;-62
2022/03/18 08:40:17;;;;;;;;;;;;;;;24.23;38.26;95576.88;4931218;29;9304;-62
2022/03/18 08:42:57;;;;;;;;;;;;;;;24.22;38.02;95572.63;4908376;29;9032;-63
2022/03/18 08:45:24;;;;;;;;;;;;;;;24.21;38.16;95571.09;4927675;29;9039;-63
2022/03/18 08:47:53;;;;;;;;;;;;;;;;;;4931633;28;9409;-63
2022/03/18 08:50:23;;;;;;;;;;;;;;;;;;4932138;29;9369;-63
2022/03/18 08:52:51;;;;;;;;;;;;;;;24.24;37.64;95567.41;4930472;29;9107;-62
2022/03/18 08:55:17;;;;;;;;;;;;;;;24.22;37.90;95574.63;4930265;29;9124;-62
2022/03/18 08:57:53;;;;;;;;;;;;;;;24.23;38.09;95576.88;4914905;29;7271;-63
2022/03/18 09:00:21;;;;;;;;;;;;;;;24.23;38.04;95574.13;4921864;29;7661;-63
2022/03/18 09:02:48;;;;;;;;;;;;;;;24.22;37.78;95580.13;4928961;28;7309;-63
2022/03/18 09:05:16;;;;;;;;;;;;;;;24.22;38.11;95580.13;4931840;28;7358;-62
2022/03/18 09:07:42;;;;;;;;;;;;;;;24.22;37.76;95580.13;4967384;28;7570;-63
2022/03/18 09:10:12;;;;;;;;;;;;;;;24.21;37.95;95584.84;4965764;28;7470;-62
2022/03/18 09:12:47;;;;;;;;;;;;;;;24.21;37.71;95586.84;4985210;28;8691;-62
2022/03/18 09:15:14;;;;;;;;;;;;;;;24.21;37.85;95587.59;4970830;28;8748;-63
2022/03/18 09:17:42;;;;;;;;;;;;;;;24.19;37.97;95595.56;4970059;28;9047;-63
2022/03/18 09:20:09;;;;;;;;;;;;;;;24.18;37.77;95591.31;4970573;28;7349;-62
2022/03/18 09:22:39;;;;;;;;;;;;;;;24.20;37.65;95593.59;4984515;28;9429;-62
2022/03/18 09:25:06;;;;;;;;;;;;;;;24.18;38.14;95590.53;4986051;28;10129;-62
2022/03/18 09:27:36;;;;;;;;;;;;;;;24.18;38.09;95593.28;4972904;28;7054;-62
2022/03/18 09:30:04;;;;;;;;;;;;;;;24.18;38.16;95594.06;4968499;28;7066;-63
2022/03/18 09:32:31;;;;;;;;;;;;;;;24.17;38.13;95589.78;4976154;28;9469;-63
2022/03/18 09:34:59;;;;;;;;;;;;;;;24.18;37.65;95587.81;4975337;28;9087;-62
2022/03/18 09:37:27;;;;;;;;;;;;;;;24.21;38.17;95592.34;4979743;28;9108;-63
2022/03/18 09:39:55;;;;;;;;;;;;;;;24.24;38.18;95600.41;4990428;28;8932;-62
2022/03/18 09:42:23;;;;;;;;;;;;;;;24.20;37.86;95602.59;4974236;28;8931;-62
2022/03/18 09:44:59;;;;;;;;;;;;;;;24.22;37.92;95593.88;4974347;28;7291;-62
2022/03/18 09:47:28;;;;;;;;;;;;;;;24.22;37.67;95599.38;4991684;28;7380;-63
2022/03/18 09:49:53;;;;;;;;;;;;;;;24.22;37.78;95597.38;4972720;28;9573;-62
2022/03/18 09:52:20;;;;;;;;;;;;;;;24.21;38.00;95595.84;4987864;28;9096;-63
2022/03/18 09:54:46;;;;;;;;;;;;;;;24.24;37.90;95600.41;4963782;28;9131;-63
2022/03/18 09:57:12;;;;;;;;;;;;;;;24.26;37.48;95600.69;4966669;28;6856;-63
2022/03/18 09:59:41;;;;;;;;;;;;;;;24.25;37.65;95607.41;4965255;28;9445;-63
2022/03/18 10:02:33;;;;;;;;;;;;;;;24.25;37.23;95601.91;4972017;28;8734;-62
2022/03/18 10:05:13;;;;;;;;;;;;;;;24.22;37.46;95605.63;4968293;28;7607;-62
2022/03/18 10:07:51;;;;;;;;;;;;;;;24.21;37.49;95609.59;4989544;28;7169;-62
2022/03/18 10:10:20;;;;;;;;;;;;;;;24.20;37.28;95610.84;4974872;28;9129;-62
2022/03/18 10:12:48;;;;;;;;;;;;;;;24.21;37.59;95617.06;4974797;28;9025;-63
2022/03/18 10:15:18;;;;;;;;;;;;;;;24.19;37.47;95614.81;4987154;28;9168;-63
2022/03/18 10:17:52;;;;;;;;;;;;;;;24.19;37.30;95619.53;4971253;28;8841;-63
2022/03/18 10:20:37;;;;;;;;;;;;;;;24.18;37.63;95624.31;4968165;28;7941;-62
2022/03/18 10:23:21;;;;;;;;;;;;;;;24.17;37.77;95620.03;4962082;28;7258;-63
2022/03/18 10:25:53;;;;;;;;;;;;;;;24.19;37.44;95614.03;4967937;28;7423;-63
2022/03/18 10:28:37;;;;;;;;;;;;;;;24.18;37.91;95618.81;4966283;28;7470;-63
2022/03/18 10:31:14;;;;;;;;;;;;;;;24.18;37.07;95618.81;4968822;28;7228;-62
2022/03/18 10:39:29;;;;;;;;;;;;;;;24.19;37.28;95614.03;4966135;28;8868;-61
2022/03/18 10:41:58;;;;;;;;;;;;;;;24.18;37.29;95613.31;4969514;28;9414;-61
2022/03/18 10:44:24;;;;;;;;;;;;;;;24.17;37.17;95614.53;4969143;28;7186;-62
2022/03/18 10:46:53;;;;;;;;;;;;;;;24.14;37.36;95618.19;4970355;28;7304;-62
2022/03/18 10:49:24;;;;;;;;;;;;;;;24.13;37.37;95611.19;4968629;28;8425;-62
2022/03/18 10:51:51;;;;;;;;;;;;;;;24.10;37.25;95623.13;4969621;28;9268;-62
2022/03/18 10:54:24;;;;;;;;;;;;;;;24.09;37.83;95616.13;4961890;28;7497;-62
2022/03/18 10:56:56;;;;;;;;;;;;;;;24.10;38.33;95622.41;4968294;28;7200;-61
2022/03/18 10:59:27;;;;;;;;;;;;;;;24.11;39.11;95619.16;4967712;28;9115;-62
2022/03/18 11:01:58;;;;;;;;;;;;;;;24.11;39.43;95616.41;4981832;28;8803;-62
2022/03/18 11:04:25;;;;;;;;;;;;;;;24.13;39.46;95615.94;4966920;28;8810;-61
2022/03/18 11:12:31;;;;;;;;;;;;;;;24.04;40.26;95619.50;4968335;28;9087;-61
2022/03/18 11:15:04;;;;;;;;;;;;;;;24.05;39.88;95623.81;4967663;28;9153;-62
2022/03/18 11:17:33;;;;;;;;;;;;;;;24.06;39.55;95628.06;4982008;28;8285;-62
2022/03/18 11:20:01;;;;;;;;;;;;;;;24.09;39.67;95621.63;4967780;28;9054;-61
2022/03/18 11:22:33;;;;;;;;;;;;;;;24.09;39.55;95627.13;4985061;28;7199;-62
2022/03/18 11:25:02;;;;;;;;;;;;;;;24.09;40.11;95629.09;4968668;28;7940;-62
2022/03/18 11:27:36;;;;;;;;;;;;;;;24.11;40.13;95629.41;4962722;28;7278;-62
2022/03/18 11:30:25;;;;;;;;;;;;;;;24.12;40.08;95626.16;4970727;28;7495;-62
2022/03/18 11:33:10;;;;;;;;;;;;;;;24.12;39.68;95626.16;4972280;28;7218;-62
2022/03/18 11:35:54;;;;;;;;;;;;;;;24.08;39.82;95624.81;4963863;28;7531;-62
2022/03/18 11:38:30;;;;;;;;;;;;;;;24.07;39.85;95629.59;4969733;28;9043;-62
2022/03/18 11:41:03;;;;;;;;;;;;;;;24.05;39.92;95626.56;4973635;28;7416;-62
2022/03/18 11:43:51;;;;;;;;;;;;;;;24.07;39.81;95629.59;4987412;28;7772;-62
2022/03/18 11:46:22;;;;;;;;;;;;;;;24.11;40.11;95623.91;4989111;28;7042;-62
2022/03/18 11:49:05;;;;;;;;;;;;;;;24.07;39.96;95624.09;4971424;28;9124;-62
2022/03/18 11:51:32;;;;;;;;;;;;;;;24.11;39.79;95619.16;4989203;28;9719;-62
2022/03/18 11:54:27;;;;;;;;;;;;;;;24.10;40.26;95614.88;4969407;28;7023;-63
2022/03/18 11:56:55;;;;;;;;;;;;;;;24.14;40.01;95618.19;4967686;28;9051;-63
2022/03/18 11:59:31;;;;;;;;;;;;;;;24.15;40.27;95608.75;4966409;28;8071;-62
2022/03/18 12:02:08;;;;;;;;;;;;;;;24.20;40.20;95616.34;4982435;28;9656;-62
2022/03/18 12:04:34;;;;;;;;;;;;;;;24.23;40.03;95609.16;4973018;28;8747;-62
2022/03/18 12:07:19;;;;;;;;;;;;;;;24.25;39.91;95615.66;4966883;28;8929;-62
2022/03/18 12:09:58;;;;;;;;;;;;;;;24.21;39.47;95615.09;4968826;28;9096;-63
2022/03/18 12:12:26;;;;;;;;;;;;;;;24.25;40.05;95614.94;4983372;28;9482;-62
2022/03/18 12:14:55;;;;;;;;;;;;;;;24.21;39.88;95606.06;4985572;28;9092;-62
2022/03/18 12:17:22;;;;;;;;;;;;;;;24.22;40.00;95607.59;4968211;28;9041;-62
2022/03/18 12:19:55;;;;;;;;;;;;;;;24.21;40.22;95608.81;4964285;28;7257;-63
2022/03/18 12:22:23;;;;;;;;;;;;;;;24.24;39.87;95603.16;4967037;28;9382;-62
2022/03/18 12:24:52;;;;;;;;;;;;;;;24.23;39.68;95606.41;4983796;28;9071;-63
2022/03/18 12:27:36;;;;;;;;;;;;;;;24.23;39.60;95604.38;4969201;28;7666;-63
2022/03/18 12:30:12;;;;;;;;;;;;;;;24.24;39.83;95600.41;4966436;28;8746;-62
2022/03/18 12:33:04;;;;;;;;;;;;;;;24.21;39.51;95595.09;4987813;28;8425;-63
2022/03/18 12:35:36;;;;;;;;;;;;;;;24.19;39.75;95592.81;4967444;28;9313;-62
2022/03/18 12:38:14;;;;;;;;;;;;;;;24.22;39.73;95588.38;4981289;28;9040;-63
2022/03/18 12:40:48;;;;;;;;;;;;;;;24.23;39.33;95595.41;4971703;28;7621;-62
2022/03/18 12:43:18;;;;;;;;;;;;;;;;;;4986740;28;7093;-62
2022/03/18 12:45:45;;;;;;;;;;;;;;;24.24;39.78;95589.41;4971367;28;9222;-62
2022/03/18 12:48:15;;;;;;;;;;;;;;;24.22;39.52;95589.13;4970411;28;7535;-61
2022/03/18 12:50:55;;;;;;;;;;;;;;;24.24;39.04;95592.16;4967877;28;7204;-61
2022/03/18 12:53:34;;;;;;;;;;;;;;;24.23;39.21;95592.66;4967877;28;7083;-61
2022/03/18 12:56:02;;;;;;;;;;;;;;;24.19;39.74;95587.31;4967799;28;9511;-62
2022/03/18 12:58:37;;;;;;;;;;;;;;;24.23;39.77;95587.88;4979881;28;8790;-62
2022/03/18 13:01:03;;;;;;;;;;;;;;;;;;4967135;28;8889;-62
2022/03/18 13:03:34;;;;;;;;;;;;;;;24.25;39.46;95585.41;4966644;28;9811;-62
2022/03/18 13:06:28;;;;;;;;;;;;;;;24.26;39.55;95589.69;4967203;28;7242;-60
2022/03/18 13:09:13;;;;;;;;;;;;;;;24.27;40.01;95585.69;4980944;28;9258;-62
2022/03/18 13:11:41;;;;;;;;;;;;;;;24.28;39.68;95578.97;4969077;28;7251;-62
2022/03/18 13:14:10;;;;;;;;;;;;;;;24.26;39.67;95570.44;4968083;28;8395;-62
2022/03/18 13:16:44;;;;;;;;;;;;;;;24.25;39.82;95582.66;4968383;28;7168;-62
2022/03/18 13:19:11;;;;;;;;;;;;;;;24.25;40.04;95573.69;4969788;28;9113;-62
2022/03/18 13:21:40;;;;;;;;;;;;;;;24.26;39.79;95586.19;4970956;28;7861;-62
2022/03/18 13:24:15;;;;;;;;;;;;;;;24.27;39.51;95577.47;4984997;28;7507;-63
2022/03/18 13:26:43;;;;;;;;;;;;;;;24.28;39.64;95581.72;4969085;28;7242;-63
2022/03/18 13:29:12;;;;;;;;;;;;;;;24.28;39.33;95576.22;4984723;28;8366;-63
2022/03/18 13:34:34;;;;;;;;;;;;;;;24.26;39.61;95570.44;4970180;28;9511;-63
2022/03/18 13:37:13;;;;;;;;;;;;;;;24.25;39.48;95574.41;4971120;28;7267;-63
2022/03/18 13:39:45;;;;;;;;;;;;;;;24.23;39.59;95568.63;4978334;28;7250;-63
2022/03/18 13:42:26;;;;;;;;;;;;;;;24.22;39.85;95563.63;4974781;28;9150;-63
2022/03/18 13:44:53;;;;;;;;;;;;;;;24.25;39.93;95566.19;4966572;28;9456;-62
2022/03/18 13:47:20;;;;;;;;;;;;;;;24.26;39.51;95567.72;4960894;28;8269;-62
2022/03/18 13:50:01;;;;;;;;;;;;;;;24.25;39.47;95563.44;4979946;28;9175;-62